Time;durP1;ratioP1;P1;durP2;ratioP2;P2;SDS_P1;SDS_P2;PMS_P1;PMS_P2;Temp;Humidity;BMP_temperature;BMP_pressure;BME280_temperature;BME280_humidity;BME280_pressure;Samples;Min_cycle;Max_cycle;Signal;HPM_P1;HPM_P2
2022/12/18 00:01:27;;;;;;;;;;;;;;;-2.96;70.00;98255.22;6296827;28;20305;-69
2022/12/18 00:04:28;;;;;;;;;;;;;;;-2.94;69.82;98248.38;6296090;28;19963;-68
2022/12/18 00:07:31;;;;;;;;;;;;;;;-2.83;70.26;98245.91;6296548;28;19920;-68
2022/12/18 00:10:36;;;;;;;;;;;;;;;-2.85;70.56;98241.59;6296413;28;19967;-67
2022/12/18 00:13:40;;;;;;;;;;;;;;;-2.79;70.54;98246.81;6296143;28;19920;-68
2022/12/18 00:16:43;;;;;;;;;;;;;;;-2.98;70.41;98245.75;6295584;28;19920;-68
2022/12/18 00:19:45;;;;;;;;;;;;;;;-2.90;70.97;98249.25;6296334;28;19927;-67
2022/12/18 00:22:46;;;;;;;;;;;;;;;-2.56;71.05;98244.44;6295980;28;19920;-67
2022/12/18 00:25:47;;;;;;;;;;;;;;;-2.76;70.86;98237.38;6296001;28;19920;-68
2022/12/18 00:28:49;;;;;;;;;;;;;;;-2.78;71.59;98238.22;6296274;28;20416;-68
2022/12/18 00:31:54;;;;;;;;;;;;;;;-2.58;71.58;98230.66;6296422;28;19920;-68
2022/12/18 00:34:57;;;;;;;;;;;;;;;-2.74;71.61;98240.84;6296140;28;19920;-67
2022/12/18 00:38:03;;;;;;;;;;;;;;;-2.58;72.11;98230.66;6296039;28;19920;-68
2022/12/18 00:41:07;;;;;;;;;;;;;;;-2.65;72.03;98234.06;6295815;28;19924;-68
2022/12/18 00:44:12;;;;;;;;;;;;;;;-2.71;71.77;98224.56;6296460;28;19947;-67
2022/12/18 00:47:15;;;;;;;;;;;;;;;-2.76;71.86;98227.06;6295732;28;19942;-68
2022/12/18 00:50:16;;;;;;;;;;;;;;;-2.87;72.73;98222.69;6295957;28;19924;-67
2022/12/18 00:53:20;;;;;;;;;;;;;;;-3.00;72.64;98213.94;6295712;28;19920;-68
2022/12/18 00:56:24;;;;;;;;;;;;;;;-2.96;72.66;98208.84;6295913;28;19924;-67
2022/12/18 00:59:30;;;;;;;;;;;;;;;-2.91;73.16;98215.78;6295927;28;19921;-67
2022/12/18 01:02:31;;;;;;;;;;;;;;;-2.68;73.25;98205.69;6295856;28;19921;-67
2022/12/18 01:05:34;;;;;;;;;;;;;;;-2.86;73.06;98203.78;6295698;28;19927;-68
2022/12/18 01:08:35;;;;;;;;;;;;;;;-2.82;72.93;98193.53;6295719;28;20001;-67
2022/12/18 01:11:37;;;;;;;;;;;;;;;-2.87;72.80;98195.19;6295694;28;19920;-67
2022/12/18 01:14:40;;;;;;;;;;;;;;;-2.73;72.69;98201.34;6295641;28;19921;-67
2022/12/18 01:17:42;;;;;;;;;;;;;;;-2.74;72.06;98197.06;6294425;28;19927;-67
2022/12/18 01:20:48;;;;;;;;;;;;;;;-2.90;72.53;98202.91;6295466;28;19920;-68
2022/12/18 01:23:55;;;;;;;;;;;;;;;-2.79;73.10;98209.03;6295583;28;19974;-68
2022/12/18 01:26:57;;;;;;;;;;;;;;;-2.94;72.82;98190.84;6295510;28;20065;-68
2022/12/18 01:30:00;;;;;;;;;;;;;;;-2.99;73.46;98183.06;6295485;28;19920;-67
2022/12/18 01:33:06;;;;;;;;;;;;;;;-3.16;73.44;98179.47;6295350;28;19920;-67
2022/12/18 01:36:14;;;;;;;;;;;;;;;-3.00;74.07;98180.47;6295345;28;20270;-67
2022/12/18 01:39:18;;;;;;;;;;;;;;;-2.79;74.07;98191.00;6295551;28;20297;-68
2022/12/18 01:42:19;;;;;;;;;;;;;;;-2.82;73.80;98172.94;6295142;28;19921;-67
2022/12/18 01:45:23;;;;;;;;;;;;;;;-2.99;73.57;98177.06;6295794;28;19920;-67
2022/12/18 01:48:26;;;;;;;;;;;;;;;-3.00;74.37;98177.91;6299822;28;19920;-67
2022/12/18 01:51:28;;;;;;;;;;;;;;;-3.01;74.25;98174.47;6299560;28;20385;-67
2022/12/18 01:54:34;;;;;;;;;;;;;;;-2.95;74.06;98181.38;6299526;28;19927;-67
2022/12/18 01:57:36;;;;;;;;;;;;;;;-2.98;73.71;98179.63;6298081;28;19927;-67
2022/12/18 02:00:43;;;;;;;;;;;;;;;-3.16;73.65;98180.31;6299476;28;20378;-67
2022/12/18 02:03:46;;;;;;;;;;;;;;;-3.33;74.17;98181.00;6299587;28;19920;-67
2022/12/18 02:06:52;;;;;;;;;;;;;;;-3.01;74.30;98189.06;6299121;28;19920;-68
2022/12/18 02:09:59;;;;;;;;;;;;;;;-3.28;74.02;98180.22;6299189;28;19921;-67
2022/12/18 02:13:00;;;;;;;;;;;;;;;-3.09;73.96;98181.25;6298980;28;20377;-67
2022/12/18 02:16:06;;;;;;;;;;;;;;;-3.16;74.29;98180.31;6297919;28;20299;-67
2022/12/18 02:19:25;;;;;;;;;;;;;;;-3.31;74.49;98180.19;6299370;28;19920;-67
2022/12/18 02:22:49;;;;;;;;;;;;;;;-3.10;74.76;98168.38;6299131;28;19916;-67
2022/12/18 02:26:01;;;;;;;;;;;;;;;-3.06;74.61;98159.81;6299016;28;19920;-67
2022/12/18 02:29:08;;;;;;;;;;;;;;;-3.00;75.02;98150.47;6299158;28;20326;-68
2022/12/18 02:32:13;;;;;;;;;;;;;;;-2.85;74.61;98149.72;6298712;28;20301;-68
2022/12/18 02:35:22;;;;;;;;;;;;;;;-2.86;74.77;98153.16;6298535;28;19967;-67
2022/12/18 02:38:24;;;;;;;;;;;;;;;-2.92;74.43;98153.06;6298491;28;19921;-68
2022/12/18 02:41:28;;;;;;;;;;;;;;;-2.68;73.62;98161.88;6298641;28;19920;-67
2022/12/18 02:44:29;;;;;;;;;;;;;;;-2.83;74.10;98134.25;6297569;28;20393;-68
2022/12/18 02:47:45;;;;;;;;;;;;;;;-2.86;73.94;98126.50;6298344;28;19916;-68
2022/12/18 02:51:04;;;;;;;;;;;;;;;-2.86;74.23;98127.41;6298341;28;19927;-68
2022/12/18 02:54:48;;;;;;;;;;;;;;;-2.82;73.94;98116.25;6297365;28;19921;-68
2022/12/18 02:57:56;;;;;;;;;;;;;;;-2.68;74.17;98121.53;6297096;28;20425;-68
2022/12/18 03:01:17;;;;;;;;;;;;;;;-2.82;74.26;98120.56;6298429;28;20023;-68
2022/12/18 03:04:21;;;;;;;;;;;;;;;-2.90;74.33;98130.78;6298183;28;19924;-68
2022/12/18 03:07:26;;;;;;;;;;;;;;;-3.00;74.19;98124.72;6297693;28;19920;-68
2022/12/18 03:10:28;;;;;;;;;;;;;;;-2.77;75.16;98134.34;6297695;28;19920;-68
2022/12/18 03:13:32;;;;;;;;;;;;;;;-2.58;74.45;98127.59;6297782;28;19924;-68
2022/12/18 03:16:34;;;;;;;;;;;;;;;-2.79;74.53;98138.59;6297574;28;19920;-67
2022/12/18 03:19:39;;;;;;;;;;;;;;;-2.72;75.06;98130.94;6296630;28;19950;-67
2022/12/18 03:22:47;;;;;;;;;;;;;;;-2.44;74.61;98125.97;6296580;28;19916;-67
2022/12/18 03:25:56;;;;;;;;;;;;;;;-2.61;74.19;98127.56;6297547;28;20023;-67
2022/12/18 03:28:59;;;;;;;;;;;;;;;-2.46;74.91;98132.84;6297474;28;19923;-67
2022/12/18 03:32:12;;;;;;;;;;;;;;;-2.54;75.09;98134.50;6297463;28;20015;-68
2022/12/18 03:35:14;;;;;;;;;;;;;;;-2.56;74.34;98125.91;6297042;28;20412;-67
2022/12/18 03:38:20;;;;;;;;;;;;;;;-2.47;74.97;98130.25;6297313;28;19920;-69
2022/12/18 03:41:23;;;;;;;;;;;;;;;-2.43;75.08;98138.03;6297081;28;19931;-67
2022/12/18 03:44:43;;;;;;;;;;;;;;;-2.47;74.55;98135.41;6296675;28;19927;-67
2022/12/18 03:48:19;;;;;;;;;;;;;;;-2.53;74.60;98125.91;6296495;28;19928;-67
2022/12/18 03:51:21;;;;;;;;;;;;;;;-2.34;74.64;98121.75;6222371;28;19925;-68
2022/12/18 03:54:23;;;;;;;;;;;;;;;-2.35;74.50;98120.91;6296662;28;19927;-67
2022/12/18 03:57:26;;;;;;;;;;;;;;;-2.40;74.66;98121.72;6294925;28;20011;-68
2022/12/18 04:00:30;;;;;;;;;;;;;;;-2.45;74.32;98119.09;6296762;28;19920;-68
2022/12/18 04:03:35;;;;;;;;;;;;;;;-2.19;73.96;98118.41;6296016;28;19920;-68
2022/12/18 04:06:41;;;;;;;;;;;;;;;-2.26;73.56;98120.94;6296510;28;20315;-69
2022/12/18 04:09:45;;;;;;;;;;;;;;;-2.27;73.89;98110.63;6296064;28;19920;-67
2022/12/18 04:12:47;;;;;;;;;;;;;;;-2.29;73.56;98114.91;6295840;28;19923;-68
2022/12/18 04:15:50;;;;;;;;;;;;;;;-2.17;73.35;98114.13;6296518;28;20256;-67
2022/12/18 04:18:56;;;;;;;;;;;;;;;-2.14;73.55;98114.13;6296254;28;19920;-68
2022/12/18 04:22:00;;;;;;;;;;;;;;;-2.35;72.34;98118.31;6296018;28;20417;-67
2022/12/18 04:25:03;;;;;;;;;;;;;;;-2.14;72.00;98116.72;6296195;28;19920;-68
2022/12/18 04:28:06;;;;;;;;;;;;;;;-2.37;72.24;98125.19;6294868;28;20139;-68
2022/12/18 04:31:07;;;;;;;;;;;;;;;-2.12;71.46;98122.75;6296057;28;20291;-68
2022/12/18 04:34:08;;;;;;;;;;;;;;;-2.39;71.20;98119.13;6295394;28;20418;-68
2022/12/18 04:37:08;;;;;;;;;;;;;;;-2.46;71.71;98131.97;6295517;28;19927;-68
2022/12/18 04:40:12;;;;;;;;;;;;;;;-2.19;71.37;98108.09;6294981;28;19920;-67
2022/12/18 04:43:16;;;;;;;;;;;;;;;-2.26;70.63;98120.94;6295618;28;19927;-68
2022/12/18 04:46:17;;;;;;;;;;;;;;;-2.26;69.70;98120.09;6295932;28;20294;-68
2022/12/18 04:49:21;;;;;;;;;;;;;;;-2.41;70.49;98125.13;6295437;28;20294;-69
2022/12/18 04:52:22;;;;;;;;;;;;;;;-2.36;70.51;98124.31;6295159;28;20367;-68
2022/12/18 04:55:28;;;;;;;;;;;;;;;-2.40;70.30;98117.44;6295387;28;19920;-67
2022/12/18 04:58:32;;;;;;;;;;;;;;;-2.17;70.36;98116.69;6295648;28;19927;-69
2022/12/18 05:01:39;;;;;;;;;;;;;;;-2.13;69.72;98115.84;6295567;28;19924;-67
2022/12/18 05:04:43;;;;;;;;;;;;;;;-2.01;69.26;98105.59;6295379;28;20017;-68
2022/12/18 05:07:48;;;;;;;;;;;;;;;-2.04;69.31;98105.56;6295642;28;20015;-67
2022/12/18 05:11:03;;;;;;;;;;;;;;;-2.07;68.56;98101.28;6295022;28;20286;-70
2022/12/18 05:14:07;;;;;;;;;;;;;;;-1.82;67.10;98109.97;6295360;28;19920;-68
2022/12/18 05:17:12;;;;;;;;;;;;;;;-1.95;67.48;98105.63;6295494;28;20014;-67
2022/12/18 05:20:18;;;;;;;;;;;;;;;-1.76;66.45;98105.69;6295653;28;19927;-68
2022/12/18 05:23:19;;;;;;;;;;;;;;;-1.88;66.52;98102.22;6300323;28;20289;-68
2022/12/18 05:26:20;;;;;;;;;;;;;;;-1.74;65.75;98109.16;6299526;28;20401;-68
2022/12/18 05:29:22;;;;;;;;;;;;;;;-1.72;66.17;98110.03;6299473;28;19920;-67
2022/12/18 05:32:27;;;;;;;;;;;;;;;-1.71;66.32;98114.31;6300110;28;20022;-67
2022/12/18 05:35:30;;;;;;;;;;;;;;;-1.65;65.49;98104.03;6299662;28;20346;-69
2022/12/18 05:38:32;;;;;;;;;;;;;;;-1.64;65.47;98116.09;6299807;28;20344;-68
2022/12/18 05:41:36;;;;;;;;;;;;;;;-1.75;64.83;98117.75;6298376;28;19928;-68
2022/12/18 05:44:40;;;;;;;;;;;;;;;-1.87;65.65;98106.53;6297971;28;19920;-67
2022/12/18 05:47:41;;;;;;;;;;;;;;;-1.74;65.73;98109.16;6299147;28;19920;-68
2022/12/18 05:50:46;;;;;;;;;;;;;;;-1.69;65.19;98097.13;6299842;28;19924;-67
2022/12/18 05:53:48;;;;;;;;;;;;;;;-1.52;65.10;98105.78;6298971;28;19920;-68
2022/12/18 05:56:54;;;;;;;;;;;;;;;-1.67;65.20;98103.16;6299339;28;19920;-67
2022/12/18 05:59:55;;;;;;;;;;;;;;;-1.45;64.75;98106.66;6299046;28;20078;-69
2022/12/18 06:02:56;;;;;;;;;;;;;;;-1.26;64.10;98103.25;6299497;28;19916;-69
2022/12/18 06:05:57;;;;;;;;;;;;;;;-1.03;64.00;98098.13;6299226;28;19921;-69
2022/12/18 06:09:01;;;;;;;;;;;;;;;-0.72;62.20;98092.97;6299446;28;19924;-67
2022/12/18 06:12:02;;;;;;;;;;;;;;;-0.56;61.43;98084.34;6298621;28;19917;-67
2022/12/18 06:15:03;;;;;;;;;;;;;;;-0.35;60.86;98092.91;6299052;28;19920;-69
2022/12/18 06:18:07;;;;;;;;;;;;;;;-0.31;61.69;98086.84;6297112;28;20428;-68
2022/12/18 06:21:08;;;;;;;;;;;;;;;-0.09;60.04;98098.00;6299120;28;19928;-67
2022/12/18 06:24:14;;;;;;;;;;;;;;;-0.04;59.41;98097.13;6298811;28;20303;-68
2022/12/18 06:27:21;;;;;;;;;;;;;;;-0.03;59.28;98104.06;6298847;28;19946;-68
2022/12/18 06:30:22;;;;;;;;;;;;;;;-0.08;58.46;98100.63;6298380;28;19928;-69
2022/12/18 06:33:25;;;;;;;;;;;;;;;-0.19;58.68;98106.69;6298326;28;19956;-68
2022/12/18 06:36:31;;;;;;;;;;;;;;;-0.11;58.37;98110.13;6296574;28;20291;-68
2022/12/18 06:39:34;;;;;;;;;;;;;;;-0.03;57.58;98091.13;6298550;28;20382;-67
2022/12/18 06:42:35;;;;;;;;;;;;;;;-0.11;57.71;98087.69;6298525;28;19920;-68
2022/12/18 06:45:36;;;;;;;;;;;;;;;0.02;57.35;98075.56;6296480;28;19931;-68
2022/12/18 06:48:42;;;;;;;;;;;;;;;0.14;56.96;98072.06;6298396;28;19924;-69
2022/12/18 06:51:46;;;;;;;;;;;;;;;0.20;57.02;98070.31;6298350;28;19920;-69
2022/12/18 06:54:47;;;;;;;;;;;;;;;0.39;56.71;98065.88;6297701;28;19920;-68
2022/12/18 06:57:48;;;;;;;;;;;;;;;0.69;55.82;98069.19;6297924;28;19924;-68
2022/12/18 07:00:58;;;;;;;;;;;;;;;0.81;55.09;98069.09;6298200;28;20293;-69
2022/12/18 07:04:04;;;;;;;;;;;;;;;0.96;54.80;98057.75;6298003;28;19920;-68
2022/12/18 07:07:09;;;;;;;;;;;;;;;0.90;54.59;98056.06;6297529;28;20333;-69
2022/12/18 07:10:10;;;;;;;;;;;;;;;1.03;54.25;98053.41;6297543;28;19917;-68
2022/12/18 07:13:11;;;;;;;;;;;;;;;1.18;52.59;98044.63;6297277;28;20009;-69
2022/12/18 07:16:16;;;;;;;;;;;;;;;0.87;53.74;98048.31;6297090;28;19921;-68
2022/12/18 07:19:20;;;;;;;;;;;;;;;1.35;52.95;98034.94;6297614;28;19924;-68
2022/12/18 07:22:22;;;;;;;;;;;;;;;1.68;53.01;98032.91;6295583;28;19931;-69
2022/12/18 07:25:24;;;;;;;;;;;;;;;1.98;50.58;98016.97;6297452;28;19920;-69
2022/12/18 07:28:25;;;;;;;;;;;;;;;1.62;51.07;98007.03;6296866;28;20062;-68
2022/12/18 07:31:27;;;;;;;;;;;;;;;1.47;51.19;98008.03;6296979;28;19920;-69
2022/12/18 07:34:30;;;;;;;;;;;;;;;1.36;50.88;98010.75;6296793;28;19921;-69
2022/12/18 07:37:31;;;;;;;;;;;;;;;1.23;51.16;98006.56;6296392;28;20023;-68
2022/12/18 07:40:34;;;;;;;;;;;;;;;1.43;49.82;98016.72;6296793;28;19920;-69
2022/12/18 07:43:39;;;;;;;;;;;;;;;1.20;50.06;98015.22;6296168;28;19920;-71
2022/12/18 07:46:40;;;;;;;;;;;;;;;1.07;50.82;98018.78;6296526;28;19921;-68
2022/12/18 07:49:46;;;;;;;;;;;;;;;0.81;51.15;98017.28;6296718;28;19926;-69
2022/12/18 07:52:50;;;;;;;;;;;;;;;1.20;51.20;98007.44;6296719;28;19920;-68
2022/12/18 07:55:54;;;;;;;;;;;;;;;3.32;46.57;97999.38;6295360;28;20326;-68
2022/12/18 07:58:58;;;;;;;;;;;;;;;4.33;44.12;98005.19;6296513;28;19920;-68
2022/12/18 08:01:59;;;;;;;;;;;;;;;5.04;42.50;97990.47;6295935;28;19920;-68
2022/12/18 08:05:00;;;;;;;;;;;;;;;5.82;41.68;97997.09;6295619;28;20389;-68
2022/12/18 08:08:02;;;;;;;;;;;;;;;6.54;40.29;97999.41;6296133;28;20313;-69
2022/12/18 08:11:03;;;;;;;;;;;;;;;6.04;39.49;97988.69;6296245;28;20003;-68
2022/12/18 08:14:08;;;;;;;;;;;;;;;5.79;40.45;97984.13;6296168;28;19939;-69
2022/12/18 08:17:13;;;;;;;;;;;;;;;6.56;38.97;97981.91;6295955;28;19920;-69
2022/12/18 08:20:18;;;;;;;;;;;;;;;6.92;37.71;97984.25;6296234;28;20435;-69
2022/12/18 08:23:19;;;;;;;;;;;;;;;6.65;37.84;97986.88;6295417;28;19924;-69
2022/12/18 08:26:23;;;;;;;;;;;;;;;6.60;38.16;97986.16;6296318;28;19920;-69
2022/12/18 08:29:26;;;;;;;;;;;;;;;7.23;36.91;97978.88;6296060;28;20400;-69
2022/12/18 08:32:27;;;;;;;;;;;;;;;7.24;36.76;97969.25;6295233;28;19921;-69
2022/12/18 08:35:28;;;;;;;;;;;;;;;7.39;36.80;97977.44;6295870;28;19946;-69
2022/12/18 08:38:30;;;;;;;;;;;;;;;7.52;36.87;97983.09;6294516;28;20278;-68
2022/12/18 08:41:33;;;;;;;;;;;;;;;7.96;36.42;97975.44;6294983;28;20032;-70
2022/12/18 08:44:37;;;;;;;;;;;;;;;8.34;36.14;97973.13;6295915;28;20371;-69
2022/12/18 08:47:38;;;;;;;;;;;;;;;7.99;35.24;97967.44;6294517;28;20019;-68
2022/12/18 08:50:53;;;;;;;;;;;;;;;5.87;38.25;97956.94;6295529;28;19920;-69
2022/12/18 08:53:57;;;;;;;;;;;;;;;4.71;41.06;97969.56;6294394;28;19920;-69
2022/12/18 08:57:03;;;;;;;;;;;;;;;4.14;42.97;97968.25;6300778;28;20338;-68
2022/12/18 09:00:04;;;;;;;;;;;;;;;4.94;42.26;97967.22;6299034;28;19927;-69
2022/12/18 09:03:15;;;;;;;;;;;;;;;7.02;38.90;97970.00;6300790;28;19924;-69
2022/12/18 09:06:19;;;;;;;;;;;;;;;7.78;37.48;97958.59;6300517;28;20103;-69
2022/12/18 09:09:21;;;;;;;;;;;;;;;7.26;38.27;97972.69;6300114;28;19925;-69
2022/12/18 09:12:22;;;;;;;;;;;;;;;7.20;38.92;97968.50;6298818;28;19919;-69
2022/12/18 09:15:23;;;;;;;;;;;;;;;6.18;40.44;97949.94;6300495;28;19920;-69
2022/12/18 09:18:29;;;;;;;;;;;;;;;5.25;43.28;97934.28;6300441;28;19920;-68
2022/12/18 09:21:41;;;;;;;;;;;;;;;4.81;44.37;97942.38;6300716;28;20617;-69
2022/12/18 09:24:42;;;;;;;;;;;;;;;4.81;45.15;97926.72;6300428;28;20443;-69
2022/12/18 09:27:48;;;;;;;;;;;;;;;4.14;46.90;97936.13;6300233;28;19927;-70
2022/12/18 09:30:52;;;;;;;;;;;;;;;3.94;47.59;97927.00;6300239;28;19916;-70
2022/12/18 09:33:55;;;;;;;;;;;;;;;4.04;47.33;97920.69;6299524;28;20412;-69
2022/12/18 09:36:56;;;;;;;;;;;;;;;4.27;46.23;97911.50;6299924;28;19928;-68
2022/12/18 09:40:00;;;;;;;;;;;;;;;4.60;44.72;97922.03;6299951;28;19924;-69
2022/12/18 09:43:04;;;;;;;;;;;;;;;4.37;44.52;97923.44;6298998;28;20341;-69
2022/12/18 09:46:08;;;;;;;;;;;;;;;3.54;44.95;97914.81;6298388;28;20312;-69
2022/12/18 09:49:18;;;;;;;;;;;;;;;2.64;46.46;97914.72;6299267;28;19927;-69
2022/12/18 09:52:52;;;;;;;;;;;;;;;1.54;48.63;97896.41;6298951;28;19920;-69
2022/12/18 09:55:56;;;;;;;;;;;;;;;1.30;50.42;97900.19;6299432;28;19920;-68
2022/12/18 09:58:57;;;;;;;;;;;;;;;1.11;50.63;97907.28;6299626;28;19963;-68
2022/12/18 10:01:58;;;;;;;;;;;;;;;1.14;50.45;97906.41;6299390;28;20382;-68
2022/12/18 10:05:05;;;;;;;;;;;;;;;0.84;51.71;97898.06;6299107;28;19920;-70
2022/12/18 10:08:13;;;;;;;;;;;;;;;0.59;51.79;97896.56;6296186;28;19935;-69
2022/12/18 10:11:22;;;;;;;;;;;;;;;0.69;52.12;97887.84;6299243;28;19928;-69
2022/12/18 10:14:27;;;;;;;;;;;;;;;0.39;52.13;97884.66;6299012;28;19924;-69
2022/12/18 10:17:30;;;;;;;;;;;;;;;0.33;51.67;97874.34;6298897;28;20019;-69
2022/12/18 10:20:37;;;;;;;;;;;;;;;0.27;51.66;97869.22;6298970;28;20393;-68
2022/12/18 10:23:58;;;;;;;;;;;;;;;0.59;50.95;97871.53;6298382;28;19927;-69
2022/12/18 10:27:10;;;;;;;;;;;;;;;0.57;50.86;97882.81;6298766;28;19924;-69
2022/12/18 10:30:15;;;;;;;;;;;;;;;0.52;51.04;97882.81;6298688;28;19920;-69
2022/12/18 10:33:19;;;;;;;;;;;;;;;0.28;51.47;97886.47;6299004;28;19971;-68
2022/12/18 10:36:23;;;;;;;;;;;;;;;0.27;51.16;97865.78;6298842;28;19920;-68
2022/12/18 10:39:27;;;;;;;;;;;;;;;0.01;50.74;97876.34;6298561;28;19927;-68
2022/12/18 10:42:31;;;;;;;;;;;;;;;-0.10;51.06;97859.16;6298486;28;19920;-69
2022/12/18 10:45:37;;;;;;;;;;;;;;;-0.51;52.63;97870.59;6298590;28;19920;-69
2022/12/18 10:48:41;;;;;;;;;;;;;;;-0.52;53.19;97858.53;6297872;28;20053;-69
2022/12/18 10:51:45;;;;;;;;;;;;;;;-0.56;53.77;97863.75;6298056;28;19916;-69
2022/12/18 10:54:48;;;;;;;;;;;;;;;-0.63;53.74;97857.72;6297636;28;20061;-69
2022/12/18 10:57:49;;;;;;;;;;;;;;;-0.74;54.71;97849.16;6297985;28;20320;-70
2022/12/18 11:01:06;;;;;;;;;;;;;;;-1.01;54.93;97842.38;6297774;28;19927;-69
2022/12/18 11:04:15;;;;;;;;;;;;;;;-1.32;55.59;97834.72;6297902;28;19920;-69
2022/12/18 11:07:18;;;;;;;;;;;;;;;-1.60;56.27;97828.75;6297652;28;19943;-69
2022/12/18 11:10:41;;;;;;;;;;;;;;;-1.65;56.61;97830.47;6298108;28;20307;-70
2022/12/18 11:13:51;;;;;;;;;;;;;;;-1.65;57.49;97820.16;6297807;28;19921;-68
2022/12/18 11:16:53;;;;;;;;;;;;;;;-1.72;57.26;97818.47;6297714;28;19959;-69
2022/12/18 11:20:19;;;;;;;;;;;;;;;-2.21;58.12;97813.28;6296544;28;19920;-69
2022/12/18 11:23:23;;;;;;;;;;;;;;;-2.34;58.54;97807.28;6297389;28;19924;-69
2022/12/18 11:26:35;;;;;;;;;;;;;;;-2.27;59.18;97808.97;6297336;28;19920;-69
2022/12/18 11:29:39;;;;;;;;;;;;;;;-2.67;60.04;97783.16;6297403;28;20370;-69
2022/12/18 11:32:44;;;;;;;;;;;;;;;-2.56;59.85;97773.72;6297265;28;19920;-69
2022/12/18 11:35:46;;;;;;;;;;;;;;;-2.65;59.62;97790.91;6296912;28;19920;-68
2022/12/18 11:38:49;;;;;;;;;;;;;;;-2.82;59.70;97777.97;6297086;28;19920;-69
2022/12/18 11:42:11;;;;;;;;;;;;;;;-2.82;59.14;97789.16;6297132;28;19920;-68
2022/12/18 11:45:14;;;;;;;;;;;;;;;-2.80;58.15;97777.13;6296616;28;20480;-69
2022/12/18 11:48:27;;;;;;;;;;;;;;;-3.08;58.40;97771.03;6296946;28;20023;-69
2022/12/18 11:52:03;;;;;;;;;;;;;;;-2.98;58.27;97753.91;6296453;28;19921;-68
2022/12/18 11:55:15;;;;;;;;;;;;;;;-3.04;57.61;97762.47;6222741;28;19925;-68
2022/12/18 11:58:36;;;;;;;;;;;;;;;-3.34;58.24;97763.22;6296546;28;19924;-68
2022/12/18 12:01:48;;;;;;;;;;;;;;;-3.34;58.08;97752.94;6296641;28;19927;-67
2022/12/18 12:05:01;;;;;;;;;;;;;;;-3.47;58.75;97756.31;6294548;28;20045;-68
2022/12/18 12:08:13;;;;;;;;;;;;;;;-3.28;58.10;97747.81;6296797;28;19920;-70
2022/12/18 12:11:36;;;;;;;;;;;;;;;-3.41;58.23;97757.19;6296691;28;19920;-67
2022/12/18 12:14:50;;;;;;;;;;;;;;;-3.41;58.57;97748.59;6295965;28;19935;-69
2022/12/18 12:17:53;;;;;;;;;;;;;;;-3.36;58.95;97734.06;6295052;28;19921;-68
2022/12/18 12:21:15;;;;;;;;;;;;;;;-3.46;59.18;97728.00;6295778;28;19968;-68
2022/12/18 12:24:27;;;;;;;;;;;;;;;-3.52;59.10;97727.13;6296089;28;20364;-68
2022/12/18 12:27:34;;;;;;;;;;;;;;;-3.63;59.39;97740.78;6296115;28;19921;-68
2022/12/18 12:30:50;;;;;;;;;;;;;;;-3.80;59.60;97738.97;6295881;28;19920;-67
2022/12/18 12:33:56;;;;;;;;;;;;;;;-3.68;59.28;97741.59;6296061;28;20305;-69
2022/12/18 12:37:00;;;;;;;;;;;;;;;-3.67;59.27;97723.63;6295805;28;19923;-68
2022/12/18 12:40:04;;;;;;;;;;;;;;;-3.70;59.12;97723.59;6295783;28;20298;-67
2022/12/18 12:43:31;;;;;;;;;;;;;;;-3.82;59.60;97723.56;6294959;28;19950;-69
2022/12/18 12:46:36;;;;;;;;;;;;;;;-3.72;59.49;97704.72;6292090;28;20281;-67
2022/12/18 12:49:47;;;;;;;;;;;;;;;-3.61;59.18;97697.06;6295852;28;19917;-68
2022/12/18 12:52:58;;;;;;;;;;;;;;;-3.77;59.53;97716.69;6294844;28;19924;-68
2022/12/18 12:56:03;;;;;;;;;;;;;;;-3.82;59.75;97710.69;6295281;28;20305;-68
2022/12/18 12:59:17;;;;;;;;;;;;;;;-3.93;59.51;97699.50;6295715;28;19920;-67
2022/12/18 13:02:22;;;;;;;;;;;;;;;-3.92;59.75;97701.19;6295583;28;19920;-68
2022/12/18 13:05:48;;;;;;;;;;;;;;;-4.01;60.37;97690.88;6295638;28;19928;-68
2022/12/18 13:08:56;;;;;;;;;;;;;;;-3.84;59.88;97699.53;6295165;28;19920;-69
2022/12/18 13:15:26;;;;;;;;;;;;;;;-3.93;60.56;97686.63;6295547;28;19920;-68
2022/12/18 13:18:28;;;;;;;;;;;;;;;-3.95;60.55;97696.03;6295202;28;20415;-68
2022/12/18 13:21:32;;;;;;;;;;;;;;;-3.96;60.66;97694.31;6295298;28;19928;-68
2022/12/18 13:24:39;;;;;;;;;;;;;;;-3.92;60.82;97675.50;6295127;28;20337;-68
2022/12/18 13:27:46;;;;;;;;;;;;;;;-3.91;60.78;97677.19;6295191;28;20381;-69
2022/12/18 13:30:49;;;;;;;;;;;;;;;-4.11;60.88;97680.50;6294501;28;20301;-68
2022/12/18 13:34:09;;;;;;;;;;;;;;;-4.10;61.55;97682.25;6295130;28;19920;-68
2022/12/18 13:37:33;;;;;;;;;;;;;;;-3.95;61.06;97676.34;6295213;28;20336;-67
2022/12/18 13:40:46;;;;;;;;;;;;;;;-4.04;61.20;97683.16;6295152;28;19986;-68
2022/12/18 13:43:52;;;;;;;;;;;;;;;-3.94;61.20;97687.47;6299405;28;19931;-67
2022/12/18 13:46:53;;;;;;;;;;;;;;;-3.87;60.67;97679.81;6299666;28;19920;-67
2022/12/18 13:49:57;;;;;;;;;;;;;;;-3.95;61.16;97696.03;6299478;28;19920;-68
2022/12/18 13:52:58;;;;;;;;;;;;;;;-3.96;60.93;97689.16;6299679;28;20317;-68
2022/12/18 13:56:05;;;;;;;;;;;;;;;-3.91;60.54;97678.06;6299460;28;19927;-68
2022/12/18 13:59:11;;;;;;;;;;;;;;;-4.06;61.09;97681.41;6299267;28;19924;-68
2022/12/18 14:02:25;;;;;;;;;;;;;;;-4.08;61.56;97677.09;6299458;28;19920;-68
2022/12/18 14:05:29;;;;;;;;;;;;;;;-3.90;60.90;97671.22;6299234;28;19916;-68
2022/12/18 14:08:38;;;;;;;;;;;;;;;-3.98;60.92;97672.91;6299272;28;19927;-69
2022/12/18 14:11:46;;;;;;;;;;;;;;;-3.97;61.36;97661.75;6299358;28;19920;-68
2022/12/18 14:14:50;;;;;;;;;;;;;;;-3.85;61.06;97670.41;6298667;28;19930;-69
2022/12/18 14:18:02;;;;;;;;;;;;;;;-3.83;60.53;97670.38;6297289;28;19927;-69
2022/12/18 14:21:17;;;;;;;;;;;;;;;-3.84;60.57;97663.53;6299012;28;19920;-69
2022/12/18 14:24:22;;;;;;;;;;;;;;;-3.81;60.43;97671.25;6297166;28;20377;-68
2022/12/18 14:27:26;;;;;;;;;;;;;;;-3.74;60.56;97660.13;6298935;28;20492;-69
2022/12/18 14:30:31;;;;;;;;;;;;;;;-3.65;60.17;97662.75;6297726;28;20070;-68
2022/12/18 14:33:37;;;;;;;;;;;;;;;-3.70;60.16;97653.31;6298094;28;20305;-67
2022/12/18 14:36:39;;;;;;;;;;;;;;;-3.78;60.63;97637.00;6297600;28;19936;-68
2022/12/18 14:40:04;;;;;;;;;;;;;;;-3.67;60.89;97630.19;6297446;28;19920;-68
2022/12/18 14:43:10;;;;;;;;;;;;;;;-3.83;61.35;97618.97;6298436;28;19926;-68
2022/12/18 14:46:24;;;;;;;;;;;;;;;-3.64;61.06;97617.31;6296648;28;19920;-68
2022/12/18 14:49:32;;;;;;;;;;;;;;;-3.85;61.41;97616.41;6298474;28;19926;-69
2022/12/18 14:52:34;;;;;;;;;;;;;;;-3.79;61.78;97595.00;6296925;28;20297;-67
2022/12/18 14:55:37;;;;;;;;;;;;;;;-3.88;62.02;97593.25;6298070;28;20057;-68
2022/12/18 14:58:44;;;;;;;;;;;;;;;-3.74;61.95;97598.41;6298076;28;19921;-69
2022/12/18 15:01:59;;;;;;;;;;;;;;;-3.83;61.99;97603.53;6298281;28;19920;-67
2022/12/18 15:05:05;;;;;;;;;;;;;;;-3.60;61.87;97603.59;6298220;28;20378;-68
2022/12/18 15:08:26;;;;;;;;;;;;;;;-3.80;61.82;97606.09;6297079;28;20378;-68
2022/12/18 15:11:35;;;;;;;;;;;;;;;-3.76;61.97;97605.28;6297914;28;19924;-69
2022/12/18 15:14:41;;;;;;;;;;;;;;;-3.84;62.50;97601.81;6297789;28;19924;-68
2022/12/18 15:17:45;;;;;;;;;;;;;;;-3.74;62.21;97603.56;6297518;28;19920;-68
2022/12/18 15:20:49;;;;;;;;;;;;;;;-3.84;62.97;97597.53;6297145;28;19927;-68
2022/12/18 15:24:00;;;;;;;;;;;;;;;-3.61;61.74;97583.88;6297349;28;19920;-69
2022/12/18 15:27:04;;;;;;;;;;;;;;;-3.79;63.05;97591.53;6296975;28;19928;-68
2022/12/18 15:30:08;;;;;;;;;;;;;;;-3.86;63.25;97575.25;6296537;28;20275;-67
2022/12/18 15:33:25;;;;;;;;;;;;;;;-3.79;63.29;97578.69;6297319;28;20285;-69
2022/12/18 15:36:38;;;;;;;;;;;;;;;-3.86;63.41;97564.94;6295852;28;20416;-68
2022/12/18 15:39:42;;;;;;;;;;;;;;;-3.70;63.37;97561.56;6297026;28;19920;-68
2022/12/18 15:46:14;;;;;;;;;;;;;;;-3.84;63.87;97551.25;6296298;28;19927;-69
2022/12/18 15:49:17;;;;;;;;;;;;;;;-3.56;63.53;97547.91;6295590;28;20073;-68
2022/12/18 15:52:25;;;;;;;;;;;;;;;-3.65;63.79;97547.03;6296409;28;19924;-69
2022/12/18 15:58:48;;;;;;;;;;;;;;;-3.77;63.88;97539.25;6296550;28;19920;-69
2022/12/18 16:01:53;;;;;;;;;;;;;;;-3.65;64.32;97531.59;6295696;28;20448;-68
2022/12/18 16:04:54;;;;;;;;;;;;;;;-3.56;64.10;97535.03;6295491;28;19920;-69
2022/12/18 16:07:55;;;;;;;;;;;;;;;-3.54;64.53;97534.16;6296608;28;19921;-68
2022/12/18 16:10:58;;;;;;;;;;;;;;;-3.49;64.77;97532.44;6296383;28;20018;-68
2022/12/18 16:14:02;;;;;;;;;;;;;;;-3.36;65.18;97517.91;6296280;28;20389;-69
2022/12/18 16:17:08;;;;;;;;;;;;;;;-3.20;64.50;97514.47;6296254;28;19920;-70
2022/12/18 16:20:15;;;;;;;;;;;;;;;-3.28;65.12;97493.03;6296282;28;19920;-68
2022/12/18 16:23:16;;;;;;;;;;;;;;;-3.09;64.58;97511.88;6296088;28;19920;-68